sensor_id;sensor_type;location;lat;lon;timestamp;temperature;humidity
31263;DHT22;17892;52.080;9.006;2022-10-31T00:01:34;14.90;91.60
31263;DHT22;17892;52.080;9.006;2022-10-31T00:04:01;14.80;91.60
31263;DHT22;17892;52.080;9.006;2022-10-31T00:06:28;14.60;91.60
31263;DHT22;17892;52.080;9.006;2022-10-31T00:09:00;14.50;91.70
31263;DHT22;17892;52.080;9.006;2022-10-31T00:11:28;14.40;91.80
31263;DHT22;17892;52.080;9.006;2022-10-31T00:13:53;14.30;91.80
31263;DHT22;17892;52.080;9.006;2022-10-31T00:16:20;14.30;91.90
31263;DHT22;17892;52.080;9.006;2022-10-31T00:18:47;14.20;92.00
31263;DHT22;17892;52.080;9.006;2022-10-31T00:21:15;14.10;92.00
31263;DHT22;17892;52.080;9.006;2022-10-31T00:23:41;14.10;92.10
31263;DHT22;17892;52.080;9.006;2022-10-31T00:26:06;14.00;92.10
31263;DHT22;17892;52.080;9.006;2022-10-31T00:28:32;14.00;92.20
31263;DHT22;17892;52.080;9.006;2022-10-31T00:30:59;13.90;92.30
31263;DHT22;17892;52.080;9.006;2022-10-31T00:33:28;13.90;92.30
31263;DHT22;17892;52.080;9.006;2022-10-31T00:35:54;13.90;92.40
31263;DHT22;17892;52.080;9.006;2022-10-31T00:38:20;13.90;92.50
31263;DHT22;17892;52.080;9.006;2022-10-31T00:40:46;13.90;92.60
31263;DHT22;17892;52.080;9.006;2022-10-31T00:43:12;13.90;92.60
31263;DHT22;17892;52.080;9.006;2022-10-31T00:45:37;13.90;92.80
31263;DHT22;17892;52.080;9.006;2022-10-31T00:48:03;13.90;92.90
31263;DHT22;17892;52.080;9.006;2022-10-31T00:50:29;13.90;93.00
31263;DHT22;17892;52.080;9.006;2022-10-31T00:52:55;13.90;93.00
31263;DHT22;17892;52.080;9.006;2022-10-31T00:55:22;14.00;93.20
31263;DHT22;17892;52.080;9.006;2022-10-31T00:57:47;14.00;93.30
31263;DHT22;17892;52.080;9.006;2022-10-31T01:00:13;14.10;93.40
31263;DHT22;17892;52.080;9.006;2022-10-31T01:02:39;14.10;93.40
31263;DHT22;17892;52.080;9.006;2022-10-31T01:05:05;14.20;93.50
31263;DHT22;17892;52.080;9.006;2022-10-31T01:07:30;14.20;93.40
31263;DHT22;17892;52.080;9.006;2022-10-31T01:09:56;14.20;93.60
31263;DHT22;17892;52.080;9.006;2022-10-31T01:12:21;14.20;93.40
31263;DHT22;17892;52.080;9.006;2022-10-31T01:14:47;14.20;93.30
31263;DHT22;17892;52.080;9.006;2022-10-31T01:17:13;14.20;93.50
31263;DHT22;17892;52.080;9.006;2022-10-31T01:19:39;14.20;93.30
31263;DHT22;17892;52.080;9.006;2022-10-31T01:22:05;14.20;93.40
31263;DHT22;17892;52.080;9.006;2022-10-31T01:24:31;14.20;93.30
31263;DHT22;17892;52.080;9.006;2022-10-31T01:26:56;14.10;93.60
31263;DHT22;17892;52.080;9.006;2022-10-31T01:29:22;14.00;94.30
31263;DHT22;17892;52.080;9.006;2022-10-31T01:31:48;14.00;93.90
31263;DHT22;17892;52.080;9.006;2022-10-31T01:34:14;14.00;93.80
31263;DHT22;17892;52.080;9.006;2022-10-31T01:36:42;13.90;93.60
31263;DHT22;17892;52.080;9.006;2022-10-31T01:39:11;13.90;93.60
31263;DHT22;17892;52.080;9.006;2022-10-31T01:41:42;13.80;93.30
31263;DHT22;17892;52.080;9.006;2022-10-31T01:49:42;13.60;93.00
31263;DHT22;17892;52.080;9.006;2022-10-31T01:54:37;13.40;92.90
31263;DHT22;17892;52.080;9.006;2022-10-31T01:57:06;13.30;92.90
31263;DHT22;17892;52.080;9.006;2022-10-31T01:59:34;13.30;92.90
31263;DHT22;17892;52.080;9.006;2022-10-31T02:02:02;13.20;93.00
31263;DHT22;17892;52.080;9.006;2022-10-31T02:04:27;13.20;93.00
31263;DHT22;17892;52.080;9.006;2022-10-31T02:07:02;13.10;93.00
31263;DHT22;17892;52.080;9.006;2022-10-31T02:09:30;13.00;92.90
31263;DHT22;17892;52.080;9.006;2022-10-31T02:11:57;13.00;93.10
31263;DHT22;17892;52.080;9.006;2022-10-31T02:14:24;12.90;93.10
31263;DHT22;17892;52.080;9.006;2022-10-31T02:16:51;12.90;93.20
31263;DHT22;17892;52.080;9.006;2022-10-31T02:20:19;12.90;93.20
31263;DHT22;17892;52.080;9.006;2022-10-31T02:25:32;12.80;93.10
31263;DHT22;17892;52.080;9.006;2022-10-31T02:35:42;12.60;93.00
31263;DHT22;17892;52.080;9.006;2022-10-31T02:44:26;12.40;93.00
31263;DHT22;17892;52.080;9.006;2022-10-31T02:47:14;12.30;93.00
31263;DHT22;17892;52.080;9.006;2022-10-31T02:49:47;12.30;93.00
31263;DHT22;17892;52.080;9.006;2022-10-31T02:52:24;12.20;93.00
31263;DHT22;17892;52.080;9.006;2022-10-31T02:54:50;12.20;93.00
31263;DHT22;17892;52.080;9.006;2022-10-31T02:57:17;12.10;93.00
31263;DHT22;17892;52.080;9.006;2022-10-31T03:00:03;12.10;93.00
31263;DHT22;17892;52.080;9.006;2022-10-31T03:07:59;12.00;93.30
31263;DHT22;17892;52.080;9.006;2022-10-31T03:10:51;12.00;93.40
31263;DHT22;17892;52.080;9.006;2022-10-31T03:16:27;12.00;93.40
31263;DHT22;17892;52.080;9.006;2022-10-31T03:19:03;11.90;93.40
31263;DHT22;17892;52.080;9.006;2022-10-31T03:21:42;11.90;93.40
31263;DHT22;17892;52.080;9.006;2022-10-31T03:24:09;11.90;93.40
31263;DHT22;17892;52.080;9.006;2022-10-31T03:26:36;11.90;93.40
31263;DHT22;17892;52.080;9.006;2022-10-31T03:29:07;11.90;93.50
31263;DHT22;17892;52.080;9.006;2022-10-31T03:31:36;11.90;93.50
31263;DHT22;17892;52.080;9.006;2022-10-31T03:34:04;11.80;93.40
31263;DHT22;17892;52.080;9.006;2022-10-31T03:36:32;11.80;93.40
31263;DHT22;17892;52.080;9.006;2022-10-31T03:39:00;11.80;93.60
31263;DHT22;17892;52.080;9.006;2022-10-31T03:41:28;11.70;93.60
31263;DHT22;17892;52.080;9.006;2022-10-31T03:44:02;11.70;93.60
31263;DHT22;17892;52.080;9.006;2022-10-31T03:46:31;11.70;93.60
31263;DHT22;17892;52.080;9.006;2022-10-31T03:48:57;11.70;93.60
31263;DHT22;17892;52.080;9.006;2022-10-31T03:53:56;11.70;93.50
31263;DHT22;17892;52.080;9.006;2022-10-31T03:56:49;11.60;93.50
31263;DHT22;17892;52.080;9.006;2022-10-31T03:59:26;11.60;93.50
31263;DHT22;17892;52.080;9.006;2022-10-31T04:01:57;11.60;93.50
31263;DHT22;17892;52.080;9.006;2022-10-31T04:04:26;11.60;93.70
31263;DHT22;17892;52.080;9.006;2022-10-31T04:06:52;11.60;93.70
31263;DHT22;17892;52.080;9.006;2022-10-31T04:09:20;11.60;93.70
31263;DHT22;17892;52.080;9.006;2022-10-31T04:11:48;11.50;93.60
31263;DHT22;17892;52.080;9.006;2022-10-31T04:14:15;11.50;93.60
31263;DHT22;17892;52.080;9.006;2022-10-31T04:16:41;11.60;93.60
31263;DHT22;17892;52.080;9.006;2022-10-31T04:19:08;11.60;93.60
31263;DHT22;17892;52.080;9.006;2022-10-31T04:21:34;11.50;93.90
31263;DHT22;17892;52.080;9.006;2022-10-31T04:23:59;11.50;94.00
31263;DHT22;17892;52.080;9.006;2022-10-31T04:26:25;11.50;93.90
31263;DHT22;17892;52.080;9.006;2022-10-31T04:28:51;11.50;93.80
31263;DHT22;17892;52.080;9.006;2022-10-31T04:31:16;11.50;93.80
31263;DHT22;17892;52.080;9.006;2022-10-31T04:33:42;11.50;94.10
31263;DHT22;17892;52.080;9.006;2022-10-31T04:36:08;11.50;94.30
31263;DHT22;17892;52.080;9.006;2022-10-31T04:38:34;11.50;94.50
31263;DHT22;17892;52.080;9.006;2022-10-31T04:40:59;11.50;94.40
31263;DHT22;17892;52.080;9.006;2022-10-31T04:43:25;11.50;94.30
31263;DHT22;17892;52.080;9.006;2022-10-31T04:45:51;11.50;94.20
31263;DHT22;17892;52.080;9.006;2022-10-31T04:48:16;11.50;94.20
31263;DHT22;17892;52.080;9.006;2022-10-31T04:50:42;11.50;94.10
31263;DHT22;17892;52.080;9.006;2022-10-31T04:53:08;11.50;94.00
31263;DHT22;17892;52.080;9.006;2022-10-31T04:55:34;11.50;94.00
31263;DHT22;17892;52.080;9.006;2022-10-31T04:58:00;11.50;94.00
31263;DHT22;17892;52.080;9.006;2022-10-31T05:00:26;11.40;93.90
31263;DHT22;17892;52.080;9.006;2022-10-31T05:02:53;11.40;93.90
31263;DHT22;17892;52.080;9.006;2022-10-31T05:05:29;11.40;93.90
31263;DHT22;17892;52.080;9.006;2022-10-31T05:07:56;11.40;93.80
31263;DHT22;17892;52.080;9.006;2022-10-31T05:10:24;11.40;93.80
31263;DHT22;17892;52.080;9.006;2022-10-31T05:12:55;11.30;93.70
31263;DHT22;17892;52.080;9.006;2022-10-31T05:15:22;11.30;93.70
31263;DHT22;17892;52.080;9.006;2022-10-31T05:17:49;11.20;93.80
31263;DHT22;17892;52.080;9.006;2022-10-31T05:20:16;11.20;93.90
31263;DHT22;17892;52.080;9.006;2022-10-31T05:22:43;11.20;94.00
31263;DHT22;17892;52.080;9.006;2022-10-31T05:25:10;11.20;94.00
31263;DHT22;17892;52.080;9.006;2022-10-31T05:27:40;11.10;93.90
31263;DHT22;17892;52.080;9.006;2022-10-31T05:30:06;11.10;93.90
31263;DHT22;17892;52.080;9.006;2022-10-31T05:32:37;11.10;93.90
31263;DHT22;17892;52.080;9.006;2022-10-31T05:35:04;11.10;93.90
31263;DHT22;17892;52.080;9.006;2022-10-31T05:37:30;11.10;94.00
31263;DHT22;17892;52.080;9.006;2022-10-31T05:39:55;11.10;94.00
31263;DHT22;17892;52.080;9.006;2022-10-31T05:42:21;11.10;94.00
31263;DHT22;17892;52.080;9.006;2022-10-31T05:44:47;11.10;93.90
31263;DHT22;17892;52.080;9.006;2022-10-31T05:47:12;11.00;93.90
31263;DHT22;17892;52.080;9.006;2022-10-31T05:49:38;11.00;93.90
31263;DHT22;17892;52.080;9.006;2022-10-31T05:52:03;11.00;93.90
31263;DHT22;17892;52.080;9.006;2022-10-31T05:54:29;11.00;94.00
31263;DHT22;17892;52.080;9.006;2022-10-31T05:56:55;11.00;94.00
31263;DHT22;17892;52.080;9.006;2022-10-31T05:59:20;11.00;94.40
31263;DHT22;17892;52.080;9.006;2022-10-31T06:01:46;11.00;94.40
31263;DHT22;17892;52.080;9.006;2022-10-31T06:04:11;11.10;94.70
31263;DHT22;17892;52.080;9.006;2022-10-31T06:06:37;11.20;95.70
31263;DHT22;17892;52.080;9.006;2022-10-31T06:09:03;11.20;95.80
31263;DHT22;17892;52.080;9.006;2022-10-31T06:11:28;11.40;95.70
31263;DHT22;17892;52.080;9.006;2022-10-31T06:13:54;11.40;95.50
31263;DHT22;17892;52.080;9.006;2022-10-31T06:16:19;11.50;95.40
31263;DHT22;17892;52.080;9.006;2022-10-31T06:18:45;11.50;95.10
31263;DHT22;17892;52.080;9.006;2022-10-31T06:21:11;11.60;95.00
31263;DHT22;17892;52.080;9.006;2022-10-31T06:23:37;11.50;94.80
31263;DHT22;17892;52.080;9.006;2022-10-31T06:26:03;11.60;94.90
31263;DHT22;17892;52.080;9.006;2022-10-31T06:28:28;11.60;94.90
31263;DHT22;17892;52.080;9.006;2022-10-31T06:30:54;11.60;94.80
31263;DHT22;17892;52.080;9.006;2022-10-31T06:33:19;11.60;94.90
31263;DHT22;17892;52.080;9.006;2022-10-31T06:35:46;11.60;95.00
31263;DHT22;17892;52.080;9.006;2022-10-31T06:38:12;11.60;94.90
31263;DHT22;17892;52.080;9.006;2022-10-31T06:40:38;11.60;94.90
31263;DHT22;17892;52.080;9.006;2022-10-31T06:43:03;11.60;94.80
31263;DHT22;17892;52.080;9.006;2022-10-31T06:45:29;11.60;94.80
31263;DHT22;17892;52.080;9.006;2022-10-31T06:47:55;11.60;94.80
31263;DHT22;17892;52.080;9.006;2022-10-31T06:50:21;11.60;94.80
31263;DHT22;17892;52.080;9.006;2022-10-31T06:52:54;11.70;95.00
31263;DHT22;17892;52.080;9.006;2022-10-31T06:55:20;11.70;95.00
31263;DHT22;17892;52.080;9.006;2022-10-31T06:58:00;11.70;95.10
31263;DHT22;17892;52.080;9.006;2022-10-31T07:00:26;11.80;95.10
31263;DHT22;17892;52.080;9.006;2022-10-31T07:05:22;11.90;95.50
31263;DHT22;17892;52.080;9.006;2022-10-31T07:07:51;11.90;95.50
31263;DHT22;17892;52.080;9.006;2022-10-31T07:10:28;12.00;95.50
31263;DHT22;17892;52.080;9.006;2022-10-31T07:12:55;12.10;95.70
31263;DHT22;17892;52.080;9.006;2022-10-31T07:15:22;12.10;95.80
31263;DHT22;17892;52.080;9.006;2022-10-31T07:17:48;12.20;95.80
31263;DHT22;17892;52.080;9.006;2022-10-31T07:20:13;12.30;95.80
31263;DHT22;17892;52.080;9.006;2022-10-31T07:22:39;12.30;95.80
31263;DHT22;17892;52.080;9.006;2022-10-31T07:25:05;12.40;95.80
31263;DHT22;17892;52.080;9.006;2022-10-31T07:30:03;12.60;96.00
31263;DHT22;17892;52.080;9.006;2022-10-31T07:32:37;12.70;96.00
31263;DHT22;17892;52.080;9.006;2022-10-31T07:35:09;12.80;96.10
31263;DHT22;17892;52.080;9.006;2022-10-31T07:37:36;12.90;96.10
31263;DHT22;17892;52.080;9.006;2022-10-31T07:40:02;13.00;96.10
31263;DHT22;17892;52.080;9.006;2022-10-31T07:42:29;13.10;96.20
31263;DHT22;17892;52.080;9.006;2022-10-31T07:44:54;13.20;96.30
31263;DHT22;17892;52.080;9.006;2022-10-31T07:47:20;13.30;96.30
31263;DHT22;17892;52.080;9.006;2022-10-31T07:49:46;13.40;96.40
31263;DHT22;17892;52.080;9.006;2022-10-31T07:52:11;13.60;96.60
31263;DHT22;17892;52.080;9.006;2022-10-31T07:54:37;13.70;96.60
31263;DHT22;17892;52.080;9.006;2022-10-31T07:57:03;13.80;96.70
31263;DHT22;17892;52.080;9.006;2022-10-31T07:59:28;14.00;96.90
31263;DHT22;17892;52.080;9.006;2022-10-31T08:01:54;14.10;96.90
31263;DHT22;17892;52.080;9.006;2022-10-31T08:04:20;14.20;96.90
31263;DHT22;17892;52.080;9.006;2022-10-31T08:06:45;14.40;97.10
31263;DHT22;17892;52.080;9.006;2022-10-31T08:09:13;14.60;97.30
31263;DHT22;17892;52.080;9.006;2022-10-31T08:11:39;14.80;97.40
31263;DHT22;17892;52.080;9.006;2022-10-31T08:14:04;15.00;97.60
31263;DHT22;17892;52.080;9.006;2022-10-31T08:16:30;15.30;97.90
31263;DHT22;17892;52.080;9.006;2022-10-31T08:18:56;15.60;98.20
31263;DHT22;17892;52.080;9.006;2022-10-31T08:21:21;15.90;98.40
31263;DHT22;17892;52.080;9.006;2022-10-31T08:23:47;16.20;98.60
31263;DHT22;17892;52.080;9.006;2022-10-31T08:26:13;16.70;99.00
31263;DHT22;17892;52.080;9.006;2022-10-31T08:28:38;17.10;99.20
31263;DHT22;17892;52.080;9.006;2022-10-31T08:31:04;17.40;99.30
31263;DHT22;17892;52.080;9.006;2022-10-31T08:33:31;17.90;99.50
31263;DHT22;17892;52.080;9.006;2022-10-31T08:35:59;18.30;99.60
31263;DHT22;17892;52.080;9.006;2022-10-31T08:38:25;18.80;99.80
31263;DHT22;17892;52.080;9.006;2022-10-31T08:40:50;19.20;99.90
31263;DHT22;17892;52.080;9.006;2022-10-31T08:43:16;19.70;99.90
31263;DHT22;17892;52.080;9.006;2022-10-31T08:45:43;20.10;99.80
31263;DHT22;17892;52.080;9.006;2022-10-31T08:48:11;20.40;98.80
31263;DHT22;17892;52.080;9.006;2022-10-31T08:50:38;20.80;98.70
31263;DHT22;17892;52.080;9.006;2022-10-31T08:53:05;21.00;98.50
31263;DHT22;17892;52.080;9.006;2022-10-31T08:55:35;21.20;98.10
31263;DHT22;17892;52.080;9.006;2022-10-31T08:58:02;21.30;97.90
31263;DHT22;17892;52.080;9.006;2022-10-31T09:00:32;21.50;97.70
31263;DHT22;17892;52.080;9.006;2022-10-31T09:02:59;21.50;97.50
31263;DHT22;17892;52.080;9.006;2022-10-31T09:05:26;21.50;96.60
31263;DHT22;17892;52.080;9.006;2022-10-31T09:07:56;21.60;95.80
31263;DHT22;17892;52.080;9.006;2022-10-31T09:10:23;21.60;95.60
31263;DHT22;17892;52.080;9.006;2022-10-31T09:12:58;21.50;95.80
31263;DHT22;17892;52.080;9.006;2022-10-31T09:15:26;21.50;95.70
31263;DHT22;17892;52.080;9.006;2022-10-31T09:17:53;21.40;95.30
31263;DHT22;17892;52.080;9.006;2022-10-31T09:20:18;21.30;95.40
31263;DHT22;17892;52.080;9.006;2022-10-31T09:22:45;21.30;95.40
31263;DHT22;17892;52.080;9.006;2022-10-31T09:25:11;21.10;95.10
31263;DHT22;17892;52.080;9.006;2022-10-31T09:27:36;21.00;95.20
31263;DHT22;17892;52.080;9.006;2022-10-31T09:30:02;20.90;95.10
31263;DHT22;17892;52.080;9.006;2022-10-31T09:32:29;20.90;95.00
31263;DHT22;17892;52.080;9.006;2022-10-31T09:34:54;20.80;94.80
31263;DHT22;17892;52.080;9.006;2022-10-31T09:37:20;20.80;94.50
31263;DHT22;17892;52.080;9.006;2022-10-31T09:39:45;20.80;94.70
31263;DHT22;17892;52.080;9.006;2022-10-31T09:45:03;20.70;94.50
31263;DHT22;17892;52.080;9.006;2022-10-31T09:47:44;20.70;94.90
31263;DHT22;17892;52.080;9.006;2022-10-31T09:50:42;20.70;95.10
31263;DHT22;17892;52.080;9.006;2022-10-31T09:53:21;20.80;94.90
31263;DHT22;17892;52.080;9.006;2022-10-31T09:55:50;20.80;94.80
31263;DHT22;17892;52.080;9.006;2022-10-31T09:58:17;20.80;94.70
31263;DHT22;17892;52.080;9.006;2022-10-31T10:00:45;20.80;94.80
31263;DHT22;17892;52.080;9.006;2022-10-31T10:05:49;20.80;94.80
31263;DHT22;17892;52.080;9.006;2022-10-31T10:08:20;20.70;94.80
31263;DHT22;17892;52.080;9.006;2022-10-31T10:16:10;20.70;94.90
31263;DHT22;17892;52.080;9.006;2022-10-31T10:27:06;20.70;94.60
31263;DHT22;17892;52.080;9.006;2022-10-31T10:29:39;20.70;94.60
31263;DHT22;17892;52.080;9.006;2022-10-31T10:32:10;20.80;95.20
31263;DHT22;17892;52.080;9.006;2022-10-31T10:34:41;21.00;95.60
31263;DHT22;17892;52.080;9.006;2022-10-31T10:37:31;21.20;95.80
31263;DHT22;17892;52.080;9.006;2022-10-31T10:40:02;21.40;96.10
31263;DHT22;17892;52.080;9.006;2022-10-31T10:46:25;21.70;94.80
31263;DHT22;17892;52.080;9.006;2022-10-31T10:49:18;21.90;94.80
31263;DHT22;17892;52.080;9.006;2022-10-31T10:51:54;22.10;94.00
31263;DHT22;17892;52.080;9.006;2022-10-31T10:59:36;22.10;94.70
31263;DHT22;17892;52.080;9.006;2022-10-31T11:02:03;22.20;94.70
31263;DHT22;17892;52.080;9.006;2022-10-31T11:04:34;22.20;94.60
31263;DHT22;17892;52.080;9.006;2022-10-31T11:07:05;22.20;93.20
31263;DHT22;17892;52.080;9.006;2022-10-31T11:09:32;22.30;93.90
31263;DHT22;17892;52.080;9.006;2022-10-31T11:11:58;22.30;94.50
31263;DHT22;17892;52.080;9.006;2022-10-31T11:14:26;22.40;93.00
31263;DHT22;17892;52.080;9.006;2022-10-31T11:17:07;22.50;93.90
31263;DHT22;17892;52.080;9.006;2022-10-31T11:19:35;22.40;93.60
31263;DHT22;17892;52.080;9.006;2022-10-31T11:22:07;22.50;92.60
31263;DHT22;17892;52.080;9.006;2022-10-31T11:24:39;22.50;93.10
31263;DHT22;17892;52.080;9.006;2022-10-31T11:27:24;22.50;93.60
31263;DHT22;17892;52.080;9.006;2022-10-31T11:29:50;22.50;93.30
31263;DHT22;17892;52.080;9.006;2022-10-31T11:32:18;22.50;92.10
31263;DHT22;17892;52.080;9.006;2022-10-31T11:34:45;22.50;91.80
31263;DHT22;17892;52.080;9.006;2022-10-31T11:37:18;22.50;93.20
31263;DHT22;17892;52.080;9.006;2022-10-31T11:39:49;22.50;93.30
31263;DHT22;17892;52.080;9.006;2022-10-31T11:42:19;22.50;93.60
31263;DHT22;17892;52.080;9.006;2022-10-31T11:44:47;22.60;93.10
31263;DHT22;17892;52.080;9.006;2022-10-31T11:47:14;22.60;93.40
31263;DHT22;17892;52.080;9.006;2022-10-31T11:49:41;22.70;93.20
31263;DHT22;17892;52.080;9.006;2022-10-31T11:54:40;22.70;93.70
31263;DHT22;17892;52.080;9.006;2022-10-31T11:59:53;22.70;93.60
31263;DHT22;17892;52.080;9.006;2022-10-31T12:02:21;22.80;93.10
31263;DHT22;17892;52.080;9.006;2022-10-31T12:04:50;22.80;93.70
31263;DHT22;17892;52.080;9.006;2022-10-31T12:07:19;22.90;92.50
31263;DHT22;17892;52.080;9.006;2022-10-31T12:09:45;22.90;93.40
31263;DHT22;17892;52.080;9.006;2022-10-31T12:17:40;23.00;93.20
31263;DHT22;17892;52.080;9.006;2022-10-31T12:23:06;23.00;93.10
31263;DHT22;17892;52.080;9.006;2022-10-31T12:25:43;23.00;93.10
31263;DHT22;17892;52.080;9.006;2022-10-31T12:39:34;23.00;93.60
31263;DHT22;17892;52.080;9.006;2022-10-31T12:50:02;23.20;93.40
31263;DHT22;17892;52.080;9.006;2022-10-31T12:58:39;23.30;93.50
31263;DHT22;17892;52.080;9.006;2022-10-31T13:04:09;23.30;93.50
31263;DHT22;17892;52.080;9.006;2022-10-31T13:06:41;23.40;93.40
31263;DHT22;17892;52.080;9.006;2022-10-31T13:09:11;23.40;92.60
31263;DHT22;17892;52.080;9.006;2022-10-31T13:11:45;23.50;93.00
31263;DHT22;17892;52.080;9.006;2022-10-31T13:14:57;23.60;92.00
31263;DHT22;17892;52.080;9.006;2022-10-31T13:17:21;23.60;92.30
31263;DHT22;17892;52.080;9.006;2022-10-31T13:20:47;23.70;91.40
31263;DHT22;17892;52.080;9.006;2022-10-31T13:22:49;23.60;92.00
31263;DHT22;17892;52.080;9.006;2022-10-31T13:25:20;23.50;92.20
31263;DHT22;17892;52.080;9.006;2022-10-31T13:30:36;23.30;91.70
31263;DHT22;17892;52.080;9.006;2022-10-31T13:33:12;23.20;90.70
31263;DHT22;17892;52.080;9.006;2022-10-31T13:35:49;23.10;91.40
31263;DHT22;17892;52.080;9.006;2022-10-31T13:38:20;23.10;91.70
31263;DHT22;17892;52.080;9.006;2022-10-31T13:41:01;23.00;92.00
31263;DHT22;17892;52.080;9.006;2022-10-31T13:45:58;22.90;90.70
31263;DHT22;17892;52.080;9.006;2022-10-31T13:50:56;22.70;91.10
31263;DHT22;17892;52.080;9.006;2022-10-31T13:53:34;22.60;89.50
31263;DHT22;17892;52.080;9.006;2022-10-31T13:56:19;22.50;90.70
31263;DHT22;17892;52.080;9.006;2022-10-31T13:59:01;22.40;90.50
31263;DHT22;17892;52.080;9.006;2022-10-31T14:01:29;22.30;90.50
31263;DHT22;17892;52.080;9.006;2022-10-31T14:04:15;22.20;90.20
31263;DHT22;17892;52.080;9.006;2022-10-31T14:09:22;21.90;90.00
31263;DHT22;17892;52.080;9.006;2022-10-31T14:11:48;21.80;90.50
31263;DHT22;17892;52.080;9.006;2022-10-31T14:14:15;21.70;90.40
31263;DHT22;17892;52.080;9.006;2022-10-31T14:16:43;21.60;90.50
31263;DHT22;17892;52.080;9.006;2022-10-31T14:19:17;21.40;90.60
31263;DHT22;17892;52.080;9.006;2022-10-31T14:21:44;21.30;90.80
31263;DHT22;17892;52.080;9.006;2022-10-31T14:26:56;21.10;90.90
31263;DHT22;17892;52.080;9.006;2022-10-31T14:29:25;21.00;91.10
31263;DHT22;17892;52.080;9.006;2022-10-31T14:34:26;20.80;91.20
31263;DHT22;17892;52.080;9.006;2022-10-31T14:37:12;20.80;91.30
31263;DHT22;17892;52.080;9.006;2022-10-31T14:50:59;20.40;91.70
31263;DHT22;17892;52.080;9.006;2022-10-31T14:53:33;20.30;91.80
31263;DHT22;17892;52.080;9.006;2022-10-31T14:56:01;20.20;91.90
31263;DHT22;17892;52.080;9.006;2022-10-31T14:58:45;20.20;92.10
31263;DHT22;17892;52.080;9.006;2022-10-31T15:01:19;20.10;92.10
31263;DHT22;17892;52.080;9.006;2022-10-31T15:03:48;20.00;92.20
31263;DHT22;17892;52.080;9.006;2022-10-31T15:06:15;19.90;92.30
31263;DHT22;17892;52.080;9.006;2022-10-31T15:11:20;19.80;92.40
31263;DHT22;17892;52.080;9.006;2022-10-31T15:13:48;19.80;92.50
31263;DHT22;17892;52.080;9.006;2022-10-31T15:16:17;19.80;92.50
31263;DHT22;17892;52.080;9.006;2022-10-31T15:18:46;19.70;92.50
31263;DHT22;17892;52.080;9.006;2022-10-31T15:21:17;19.70;92.50
31263;DHT22;17892;52.080;9.006;2022-10-31T15:23:43;19.70;92.50
31263;DHT22;17892;52.080;9.006;2022-10-31T15:26:17;19.60;92.40
31263;DHT22;17892;52.080;9.006;2022-10-31T15:28:44;19.60;92.40
31263;DHT22;17892;52.080;9.006;2022-10-31T15:31:15;19.50;92.40
31263;DHT22;17892;52.080;9.006;2022-10-31T15:33:42;19.50;92.40
31263;DHT22;17892;52.080;9.006;2022-10-31T15:36:17;19.50;92.40
31263;DHT22;17892;52.080;9.006;2022-10-31T15:38:45;19.50;92.30
31263;DHT22;17892;52.080;9.006;2022-10-31T15:43:45;19.30;92.30
31263;DHT22;17892;52.080;9.006;2022-10-31T15:46:12;19.30;92.40
31263;DHT22;17892;52.080;9.006;2022-10-31T15:48:38;19.30;92.40
31263;DHT22;17892;52.080;9.006;2022-10-31T15:51:05;19.20;92.40
31263;DHT22;17892;52.080;9.006;2022-10-31T15:56:02;19.10;92.40
31263;DHT22;17892;52.080;9.006;2022-10-31T15:58:32;19.10;92.70
31263;DHT22;17892;52.080;9.006;2022-10-31T16:00:59;19.10;92.80
31263;DHT22;17892;52.080;9.006;2022-10-31T16:03:28;19.00;93.10
31263;DHT22;17892;52.080;9.006;2022-10-31T16:05:56;19.00;93.30
31263;DHT22;17892;52.080;9.006;2022-10-31T16:10:55;18.90;93.50
31263;DHT22;17892;52.080;9.006;2022-10-31T16:13:31;18.90;93.50
31263;DHT22;17892;52.080;9.006;2022-10-31T16:16:00;18.90;93.60
31263;DHT22;17892;52.080;9.006;2022-10-31T16:18:28;18.90;93.50
31263;DHT22;17892;52.080;9.006;2022-10-31T16:20:55;18.90;93.70
31263;DHT22;17892;52.080;9.006;2022-10-31T16:23:22;18.90;93.70
31263;DHT22;17892;52.080;9.006;2022-10-31T16:25:49;18.90;94.00
31263;DHT22;17892;52.080;9.006;2022-10-31T16:28:17;18.90;93.70
31263;DHT22;17892;52.080;9.006;2022-10-31T16:30:44;18.80;93.80
31263;DHT22;17892;52.080;9.006;2022-10-31T16:33:21;18.90;93.80
31263;DHT22;17892;52.080;9.006;2022-10-31T16:35:49;18.80;93.70
31263;DHT22;17892;52.080;9.006;2022-10-31T16:38:15;18.90;93.50
31263;DHT22;17892;52.080;9.006;2022-10-31T16:40:41;18.90;93.50
31263;DHT22;17892;52.080;9.006;2022-10-31T16:43:08;18.90;93.50
31263;DHT22;17892;52.080;9.006;2022-10-31T16:45:36;18.90;93.50
31263;DHT22;17892;52.080;9.006;2022-10-31T16:48:05;18.80;93.30
31263;DHT22;17892;52.080;9.006;2022-10-31T16:50:35;18.80;93.30
31263;DHT22;17892;52.080;9.006;2022-10-31T16:53:02;18.80;93.50
31263;DHT22;17892;52.080;9.006;2022-10-31T16:55:28;18.80;93.90
31263;DHT22;17892;52.080;9.006;2022-10-31T16:57:55;18.80;93.60
31263;DHT22;17892;52.080;9.006;2022-10-31T17:00:22;18.80;93.70
31263;DHT22;17892;52.080;9.006;2022-10-31T17:02:50;18.80;93.60
31263;DHT22;17892;52.080;9.006;2022-10-31T17:05:17;18.80;93.70
31263;DHT22;17892;52.080;9.006;2022-10-31T17:07:43;18.80;93.60
31263;DHT22;17892;52.080;9.006;2022-10-31T17:10:10;18.80;93.60
31263;DHT22;17892;52.080;9.006;2022-10-31T17:12:36;18.80;93.50
31263;DHT22;17892;52.080;9.006;2022-10-31T17:15:03;18.80;93.90
31263;DHT22;17892;52.080;9.006;2022-10-31T17:17:30;18.80;93.50
31263;DHT22;17892;52.080;9.006;2022-10-31T17:19:56;18.80;93.50
31263;DHT22;17892;52.080;9.006;2022-10-31T17:22:22;18.80;93.40
31263;DHT22;17892;52.080;9.006;2022-10-31T17:24:47;18.80;93.30
31263;DHT22;17892;52.080;9.006;2022-10-31T17:27:13;18.80;93.30
31263;DHT22;17892;52.080;9.006;2022-10-31T17:29:38;18.80;93.30
31263;DHT22;17892;52.080;9.006;2022-10-31T17:32:04;18.80;93.20
31263;DHT22;17892;52.080;9.006;2022-10-31T17:34:30;18.80;93.20
31263;DHT22;17892;52.080;9.006;2022-10-31T17:36:55;18.80;93.20
31263;DHT22;17892;52.080;9.006;2022-10-31T17:39:21;18.80;93.20
31263;DHT22;17892;52.080;9.006;2022-10-31T17:41:50;18.80;93.10
31263;DHT22;17892;52.080;9.006;2022-10-31T17:44:17;18.80;93.10
31263;DHT22;17892;52.080;9.006;2022-10-31T17:46:43;18.80;93.10
31263;DHT22;17892;52.080;9.006;2022-10-31T17:49:11;18.70;93.00
31263;DHT22;17892;52.080;9.006;2022-10-31T17:51:37;18.70;93.00
31263;DHT22;17892;52.080;9.006;2022-10-31T17:54:03;18.60;93.00
31263;DHT22;17892;52.080;9.006;2022-10-31T17:56:30;18.60;93.10
31263;DHT22;17892;52.080;9.006;2022-10-31T17:58:56;18.60;93.10
31263;DHT22;17892;52.080;9.006;2022-10-31T18:01:22;18.50;93.10
31263;DHT22;17892;52.080;9.006;2022-10-31T18:03:48;18.50;93.30
31263;DHT22;17892;52.080;9.006;2022-10-31T18:06:14;18.50;93.20
31263;DHT22;17892;52.080;9.006;2022-10-31T18:08:41;18.50;93.30